createdAt,value
2023-04-14T00:00:33.499Z,6.90
2023-04-14T00:03:02.042Z,7.10
2023-04-14T00:05:31.589Z,6.70
2023-04-14T00:07:59.659Z,6.80
2023-04-14T00:10:27.733Z,6.80
2023-04-14T00:12:56.328Z,6.80
2023-04-14T00:15:24.159Z,6.70
2023-04-14T00:17:52.441Z,6.70
2023-04-14T00:20:20.319Z,6.70
2023-04-14T00:22:49.494Z,6.70
2023-04-14T00:25:17.330Z,6.50
2023-04-14T00:27:45.361Z,6.60
2023-04-14T00:30:13.916Z,6.50
2023-04-14T00:32:41.643Z,6.00
2023-04-14T00:35:09.967Z,6.40
2023-04-14T00:37:37.660Z,6.40
2023-04-14T00:40:10.726Z,6.30
2023-04-14T00:42:43.898Z,6.50
2023-04-14T00:45:12.438Z,6.40
2023-04-14T00:47:41.442Z,6.20
2023-04-14T00:50:11.314Z,6.20
2023-04-14T00:52:40.150Z,6.30
2023-04-14T00:55:10.713Z,6.40
2023-04-14T00:57:38.966Z,6.30
2023-04-14T01:00:07.862Z,6.20
2023-04-14T01:02:35.797Z,6.10
2023-04-14T01:05:04.001Z,6.40
2023-04-14T01:07:32.057Z,6.00
2023-04-14T01:10:00.952Z,6.30
2023-04-14T01:12:45.370Z,5.80
2023-04-14T01:15:22.095Z,6.10
2023-04-14T01:17:55.538Z,5.80
2023-04-14T01:20:31.938Z,6.00
2023-04-14T01:23:04.262Z,6.20
2023-04-14T01:26:07.635Z,6.20
2023-04-14T01:28:49.373Z,5.90
2023-04-14T01:31:26.591Z,5.70
2023-04-14T01:34:00.091Z,6.00
2023-04-14T01:36:35.369Z,6.10
2023-04-14T01:39:06.958Z,6.00
2023-04-14T01:41:38.387Z,6.10
2023-04-14T01:44:08.625Z,6.00
2023-04-14T01:46:38.451Z,6.20
2023-04-14T01:49:06.646Z,5.70
2023-04-14T01:51:35.358Z,5.80
2023-04-14T01:54:04.910Z,5.80
2023-04-14T01:56:34.228Z,5.70
2023-04-14T01:59:03.091Z,5.90
2023-04-14T02:01:32.531Z,5.80
2023-04-14T02:04:03.593Z,5.60
2023-04-14T02:06:32.754Z,5.50
2023-04-14T02:09:02.203Z,5.70
2023-04-14T02:11:31.404Z,5.40
2023-04-14T02:14:00.563Z,5.50
2023-04-14T02:16:29.644Z,5.50
2023-04-14T02:19:00.046Z,5.50
2023-04-14T02:21:31.159Z,5.20
2023-04-14T02:23:58.915Z,5.30
2023-04-14T02:26:31.580Z,5.40
2023-04-14T02:29:07.174Z,5.30
2023-04-14T02:31:36.919Z,5.30
2023-04-14T02:34:08.301Z,5.10
2023-04-14T02:36:43.008Z,5.30
2023-04-14T02:39:17.626Z,5.30
2023-04-14T02:41:46.994Z,5.10
2023-04-14T02:44:20.414Z,5.10
2023-04-14T02:46:54.788Z,5.20
2023-04-14T02:49:24.282Z,5.20
2023-04-14T02:51:55.094Z,5.10
2023-04-14T02:54:23.489Z,4.70
2023-04-14T02:56:51.783Z,5.10
2023-04-14T02:59:21.996Z,5.00
2023-04-14T03:01:51.725Z,4.70
2023-04-14T03:04:19.654Z,4.60
2023-04-14T03:06:47.757Z,4.90
2023-04-14T03:09:19.199Z,4.60
2023-04-14T03:11:47.910Z,4.70
2023-04-14T03:14:16.498Z,4.70
2023-04-14T03:16:44.555Z,4.60
2023-04-14T03:19:13.646Z,4.70
2023-04-14T03:21:42.226Z,4.60
2023-04-14T03:24:13.898Z,4.10
2023-04-14T03:26:46.791Z,4.60
2023-04-14T03:29:15.377Z,4.70
2023-04-14T03:31:44.674Z,5.00
2023-04-14T03:34:15.241Z,4.80
2023-04-14T03:36:44.843Z,5.00
2023-04-14T03:39:14.760Z,4.80
2023-04-14T03:41:48.563Z,4.80
2023-04-14T03:44:19.469Z,5.10
2023-04-14T03:46:49.123Z,4.80
2023-04-14T03:49:19.394Z,4.80
2023-04-14T03:51:51.693Z,5.20
2023-04-14T03:54:22.120Z,5.00
2023-04-14T03:56:56.005Z,5.00
2023-04-14T03:59:26.424Z,4.90
2023-04-14T04:01:55.415Z,5.30
2023-04-14T04:04:25.013Z,5.00
2023-04-14T04:06:53.398Z,4.90
2023-04-14T04:09:24.524Z,5.10
2023-04-14T04:11:54.667Z,5.20
2023-04-14T04:14:23.473Z,5.00
2023-04-14T04:16:52.366Z,5.10
2023-04-14T04:19:22.582Z,5.10
2023-04-14T04:21:52.367Z,5.30
2023-04-14T04:24:23.936Z,5.00
2023-04-14T04:26:54.392Z,4.80
2023-04-14T04:29:23.171Z,5.20
2023-04-14T04:31:52.223Z,4.90
2023-04-14T04:34:23.654Z,5.00
2023-04-14T04:36:51.825Z,5.00
2023-04-14T04:39:19.567Z,4.90
2023-04-14T04:41:49.798Z,5.10
2023-04-14T04:44:19.060Z,4.80
2023-04-14T04:46:53.890Z,5.00
2023-04-14T04:49:21.744Z,5.00
2023-04-14T04:51:49.905Z,5.00
2023-04-14T04:54:18.152Z,5.10
2023-04-14T04:56:46.109Z,5.20
2023-04-14T04:59:13.900Z,5.10
2023-04-14T05:01:43.249Z,5.10
2023-04-14T05:04:11.640Z,5.00
2023-04-14T05:06:39.546Z,5.20
2023-04-14T05:09:07.454Z,5.10
2023-04-14T05:11:35.373Z,5.10
2023-04-14T05:14:03.573Z,5.10
2023-04-14T05:16:31.369Z,5.20
2023-04-14T05:19:00.681Z,5.40
2023-04-14T05:21:28.789Z,5.50
2023-04-14T05:23:56.623Z,5.30
2023-04-14T05:28:55.185Z,5.30
2023-04-14T05:31:23.045Z,5.60
2023-04-14T05:33:50.777Z,5.30
2023-04-14T05:36:19.810Z,5.40
2023-04-14T05:38:47.534Z,5.40
2023-04-14T05:41:15.451Z,5.50
2023-04-14T05:43:43.170Z,5.30
2023-04-14T05:46:11.040Z,5.70
2023-04-14T05:48:38.875Z,4.90
2023-04-14T05:51:06.819Z,5.60
2023-04-14T05:53:36.086Z,5.50
2023-04-14T05:56:03.889Z,5.60
2023-04-14T05:58:31.584Z,5.70
2023-04-14T06:00:59.391Z,5.70
2023-04-14T06:03:27.316Z,5.80
2023-04-14T06:05:55.661Z,5.80
2023-04-14T06:08:23.477Z,5.90
2023-04-14T06:10:52.584Z,6.10
2023-04-14T06:13:22.790Z,5.80
2023-04-14T06:15:50.949Z,6.10
2023-04-14T06:18:18.831Z,6.30
2023-04-14T06:20:46.621Z,5.90
2023-04-14T06:23:14.372Z,6.20
2023-04-14T06:25:42.106Z,6.20
2023-04-14T06:28:11.159Z,6.50
2023-04-14T06:30:38.879Z,6.40
2023-04-14T06:33:07.206Z,6.40
2023-04-14T06:35:35.517Z,6.80
2023-04-14T06:38:03.462Z,7.40
2023-04-14T06:40:31.401Z,8.90
2023-04-14T06:42:59.320Z,10.90
2023-04-14T06:45:28.455Z,12.20
2023-04-14T06:47:56.979Z,13.30
2023-04-14T06:50:24.814Z,14.00
2023-04-14T06:52:52.554Z,14.10
2023-04-14T06:55:21.575Z,14.70
2023-04-14T06:57:49.319Z,14.90
2023-04-14T07:00:17.773Z,15.20
2023-04-14T07:02:46.983Z,15.40
2023-04-14T07:05:14.996Z,15.40
2023-04-14T07:07:43.436Z,16.10
2023-04-14T07:10:12.564Z,16.40
2023-04-14T07:12:40.440Z,16.80
2023-04-14T07:15:09.335Z,16.40
2023-04-14T07:17:37.703Z,17.20
2023-04-14T07:20:08.275Z,17.50
2023-04-14T07:22:36.292Z,17.50
2023-04-14T07:25:04.087Z,18.00
2023-04-14T07:27:31.978Z,18.20
2023-04-14T07:29:59.902Z,18.30
2023-04-14T07:32:27.885Z,18.10
2023-04-14T07:34:57.703Z,18.40
2023-04-14T07:37:27.945Z,18.30
2023-04-14T07:39:55.871Z,18.00
2023-04-14T07:42:23.597Z,18.80
2023-04-14T07:44:51.495Z,19.50
2023-04-14T07:47:19.303Z,20.30
2023-04-14T07:49:47.323Z,20.10
2023-04-14T07:52:15.183Z,20.10
2023-04-14T07:54:45.772Z,19.70
2023-04-14T07:57:14.092Z,19.30
2023-04-14T07:59:42.822Z,19.60
2023-04-14T08:02:12.863Z,19.10
2023-04-14T08:04:43.632Z,20.00
2023-04-14T08:07:13.397Z,20.60
2023-04-14T08:09:44.025Z,20.60
2023-04-14T08:12:15.346Z,20.70
2023-04-14T08:14:45.410Z,21.20
2023-04-14T08:17:15.348Z,21.60
2023-04-14T08:19:45.186Z,21.80
2023-04-14T08:22:14.963Z,22.00
2023-04-14T08:24:44.820Z,22.00
2023-04-14T08:27:16.453Z,22.20
2023-04-14T08:29:46.474Z,22.80
2023-04-14T08:32:16.256Z,22.90
2023-04-14T08:35:36.924Z,23.40
2023-04-14T08:37:36.333Z,23.20
2023-04-14T08:40:06.592Z,23.60
2023-04-14T08:42:37.876Z,22.80
2023-04-14T08:45:08.773Z,22.00
2023-04-14T08:47:41.398Z,22.10
2023-04-14T08:50:18.644Z,22.50
2023-04-14T08:52:49.796Z,22.90
2023-04-14T08:55:20.574Z,22.30
2023-04-14T08:57:51.232Z,22.60
2023-04-14T09:00:20.241Z,22.40
2023-04-14T09:02:48.525Z,22.50
2023-04-14T09:05:16.525Z,22.80
2023-04-14T09:07:44.645Z,22.90
2023-04-14T09:10:12.923Z,23.10
2023-04-14T09:12:41.954Z,23.30
2023-04-14T09:15:13.366Z,23.30
2023-04-14T09:17:41.511Z,23.10
2023-04-14T09:20:36.891Z,23.40
2023-04-14T09:22:58.839Z,23.40
2023-04-14T09:25:27.014Z,23.60
2023-04-14T09:27:55.101Z,23.40
2023-04-14T09:30:24.330Z,23.90
2023-04-14T09:32:53.718Z,23.60
2023-04-14T09:35:21.573Z,23.80
2023-04-14T09:37:49.593Z,24.20
2023-04-14T09:40:29.739Z,23.90
2023-04-14T09:42:58.145Z,23.80
2023-04-14T09:45:42.139Z,23.30
2023-04-14T09:48:12.922Z,23.00
2023-04-14T09:51:01.010Z,23.20
2023-04-14T09:53:30.095Z,23.40
2023-04-14T09:55:59.639Z,23.10
2023-04-14T09:58:31.132Z,23.10
2023-04-14T10:01:00.358Z,22.80
2023-04-14T10:03:34.845Z,23.00
2023-04-14T10:06:04.732Z,22.90
2023-04-14T10:08:37.621Z,23.10
2023-04-14T10:11:19.639Z,23.20
2023-04-14T10:13:48.646Z,23.60
2023-04-14T10:16:18.433Z,23.10
2023-04-14T10:18:46.685Z,22.50
2023-04-14T10:21:16.308Z,22.60
2023-04-14T10:23:46.285Z,23.40
2023-04-14T10:26:15.021Z,22.90
2023-04-14T10:28:46.186Z,22.60
2023-04-14T10:31:20.060Z,22.50
2023-04-14T10:33:48.642Z,23.00
2023-04-14T10:36:25.252Z,23.00
2023-04-14T10:39:01.248Z,23.00
2023-04-14T10:41:37.707Z,22.70
2023-04-14T10:44:07.148Z,22.20
2023-04-14T10:46:45.664Z,22.00
2023-04-14T10:49:14.007Z,22.30
2023-04-14T10:51:42.478Z,21.90
2023-04-14T10:54:23.430Z,22.10
2023-04-14T10:57:11.285Z,22.00
2023-04-14T10:59:43.168Z,21.60
2023-04-14T11:02:30.533Z,22.30
2023-04-14T11:05:12.191Z,22.50
2023-04-14T11:07:46.077Z,22.40
2023-04-14T11:10:28.809Z,22.20
2023-04-14T11:12:58.656Z,22.00
2023-04-14T11:15:48.003Z,22.30
2023-04-14T11:18:21.205Z,22.30
2023-04-14T11:20:54.302Z,22.90
2023-04-14T11:23:28.868Z,22.60
2023-04-14T11:25:58.151Z,23.30
2023-04-14T11:28:32.707Z,23.60
2023-04-14T11:31:02.816Z,23.70
2023-04-14T11:33:32.738Z,22.90
2023-04-14T11:36:02.723Z,23.10
2023-04-14T11:38:32.265Z,22.40
2023-04-14T11:41:02.221Z,22.90
2023-04-14T11:43:31.514Z,22.60
2023-04-14T11:46:00.566Z,22.30
2023-04-14T11:48:30.250Z,22.20
2023-04-14T11:51:03.780Z,22.70
2023-04-14T11:53:33.212Z,22.90
2023-04-14T11:56:01.420Z,23.00
2023-04-14T11:58:30.256Z,23.10
2023-04-14T12:00:58.862Z,23.20
2023-04-14T12:03:29.088Z,23.00
2023-04-14T12:05:59.995Z,23.10
2023-04-14T12:08:31.261Z,23.30
2023-04-14T12:10:59.590Z,23.00
2023-04-14T12:13:28.079Z,23.00
2023-04-14T12:15:56.573Z,23.20
2023-04-14T12:18:24.747Z,23.50
2023-04-14T12:20:55.213Z,23.30
2023-04-14T12:23:25.606Z,23.10
2023-04-14T12:25:54.807Z,23.00
2023-04-14T12:28:27.563Z,23.20
2023-04-14T12:30:59.038Z,23.30
2023-04-14T12:33:28.435Z,22.80
2023-04-14T12:36:01.636Z,22.90
2023-04-14T12:38:57.216Z,22.80
2023-04-14T12:41:26.464Z,22.60
2023-04-14T12:43:54.212Z,22.80
2023-04-14T12:46:27.115Z,22.70
2023-04-14T12:51:26.023Z,22.30
2023-04-14T12:54:07.598Z,22.00
2023-04-14T12:56:35.390Z,21.70
2023-04-14T12:59:05.059Z,21.30
2023-04-14T13:01:33.022Z,21.30
2023-04-14T13:04:01.573Z,21.90
2023-04-14T13:06:29.805Z,21.30
2023-04-14T13:08:59.570Z,21.50
2023-04-14T13:11:27.641Z,20.80
2023-04-14T13:13:55.536Z,20.20
2023-04-14T13:16:27.053Z,20.40
2023-04-14T13:18:55.511Z,20.00
2023-04-14T13:21:23.304Z,20.40
2023-04-14T13:23:51.160Z,20.60
2023-04-14T13:26:20.728Z,20.40
2023-04-14T13:28:50.384Z,20.50
2023-04-14T13:31:19.099Z,20.40
2023-04-14T13:33:46.964Z,20.00
2023-04-14T13:36:14.772Z,19.80
2023-04-14T13:38:42.754Z,19.60
2023-04-14T13:41:11.085Z,19.30
2023-04-14T13:43:40.137Z,19.20
2023-04-14T13:46:08.990Z,19.20
2023-04-14T13:48:36.777Z,19.10
2023-04-14T13:51:04.799Z,18.90
2023-04-14T13:53:32.542Z,19.20
2023-04-14T13:56:00.236Z,18.80
2023-04-14T13:58:28.086Z,19.00
2023-04-14T14:00:57.769Z,18.60
2023-04-14T14:03:27.382Z,18.60
2023-04-14T14:05:56.404Z,19.10
2023-04-14T14:08:24.091Z,19.20
2023-04-14T14:10:51.785Z,18.90
2023-04-14T14:13:20.523Z,18.40
2023-04-14T14:15:48.633Z,18.70
2023-04-14T14:18:17.894Z,18.40
2023-04-14T14:20:45.764Z,18.30
2023-04-14T14:23:13.488Z,18.50
2023-04-14T14:25:41.785Z,18.60
2023-04-14T14:28:09.563Z,18.40
2023-04-14T14:30:37.358Z,18.30
2023-04-14T14:33:05.451Z,18.60
2023-04-14T14:35:34.648Z,18.80
2023-04-14T14:38:02.445Z,18.60
2023-04-14T14:40:30.351Z,18.50
2023-04-14T14:42:58.128Z,18.30
2023-04-14T14:45:31.078Z,18.10
2023-04-14T14:48:00.499Z,18.40
2023-04-14T14:50:28.270Z,17.90
2023-04-14T14:52:57.608Z,18.10
2023-04-14T14:55:25.373Z,17.90
2023-04-14T14:57:53.104Z,17.80
2023-04-14T15:00:21.201Z,17.80
2023-04-14T15:02:49.069Z,17.90
2023-04-14T15:05:17.119Z,18.00
2023-04-14T15:07:44.862Z,18.20
2023-04-14T15:10:14.293Z,18.30
2023-04-14T15:12:42.083Z,18.40
2023-04-14T15:15:10.457Z,18.40
2023-04-14T15:17:38.495Z,18.60
2023-04-14T15:20:08.211Z,18.10
2023-04-14T15:22:36.421Z,18.30
2023-04-14T15:25:04.974Z,18.40
2023-04-14T15:27:34.032Z,18.50
2023-04-14T15:30:01.768Z,18.50
2023-04-14T15:32:29.489Z,18.30
2023-04-14T15:34:58.284Z,18.40
2023-04-14T15:37:27.789Z,18.20
2023-04-14T15:39:56.010Z,18.30
2023-04-14T15:42:23.823Z,17.90
2023-04-14T15:44:52.889Z,17.50
2023-04-14T15:47:20.829Z,17.20
2023-04-14T15:49:52.335Z,17.30
2023-04-14T15:52:28.330Z,17.40
2023-04-14T15:54:56.017Z,17.20
2023-04-14T15:57:24.359Z,17.30
2023-04-14T15:59:53.456Z,17.40
2023-04-14T16:02:21.672Z,17.50
2023-04-14T16:04:49.569Z,17.60
2023-04-14T16:07:17.332Z,17.50
2023-04-14T16:09:45.103Z,17.40
2023-04-14T16:12:12.826Z,17.50
2023-04-14T16:14:40.531Z,17.70
2023-04-14T16:17:09.609Z,17.60
2023-04-14T16:19:37.300Z,17.60
2023-04-14T16:22:05.029Z,17.50
2023-04-14T16:24:32.727Z,17.20
2023-04-14T16:27:00.963Z,17.10
2023-04-14T16:29:28.643Z,16.80
2023-04-14T16:31:56.503Z,16.90
2023-04-14T16:34:26.174Z,17.00
2023-04-14T16:36:54.053Z,17.00
2023-04-14T16:39:22.343Z,17.00
2023-04-14T16:41:50.117Z,16.90
2023-04-14T16:44:17.807Z,16.40
2023-04-14T16:46:45.557Z,16.80
2023-04-14T16:49:14.521Z,16.70
2023-04-14T16:51:44.313Z,16.70
2023-04-14T16:54:12.131Z,16.70
2023-04-14T16:56:39.991Z,16.70
2023-04-14T16:59:08.902Z,16.90
2023-04-14T17:01:36.704Z,16.90
2023-04-14T17:04:05.133Z,16.50
2023-04-14T17:06:33.600Z,16.40
2023-04-14T17:09:03.259Z,16.10
2023-04-14T17:11:31.060Z,16.30
2023-04-14T17:13:58.907Z,15.80
2023-04-14T17:16:27.280Z,16.30
2023-04-14T17:18:55.505Z,15.70
2023-04-14T17:21:23.277Z,16.00
2023-04-14T17:23:53.115Z,16.20
2023-04-14T17:26:25.250Z,15.90
2023-04-14T17:28:54.583Z,15.80
2023-04-14T17:31:24.575Z,15.80
2023-04-14T17:33:55.415Z,15.40
2023-04-14T17:36:25.171Z,15.50
2023-04-14T17:38:54.464Z,15.50
2023-04-14T17:41:26.130Z,15.50
2023-04-14T17:43:55.525Z,15.30
2023-04-14T17:46:34.253Z,14.90
2023-04-14T17:49:07.287Z,15.00
2023-04-14T17:51:37.145Z,14.70
2023-04-14T17:54:07.557Z,14.80
2023-04-14T17:56:39.716Z,14.70
2023-04-14T17:59:09.915Z,14.50
2023-04-14T18:01:43.888Z,14.40
2023-04-14T18:04:12.506Z,14.50
2023-04-14T18:06:41.267Z,14.50
2023-04-14T18:09:09.254Z,14.30
2023-04-14T18:11:38.289Z,14.10
2023-04-14T18:14:06.053Z,14.00
2023-04-14T18:16:33.786Z,14.00
2023-04-14T18:19:01.610Z,14.10
2023-04-14T18:21:29.594Z,14.00
2023-04-14T18:26:31.912Z,13.80
2023-04-14T18:29:04.528Z,14.00
2023-04-14T18:31:34.339Z,13.70
2023-04-14T18:34:10.611Z,13.70
2023-04-14T18:36:41.292Z,13.80
2023-04-14T18:39:09.982Z,13.60
2023-04-14T18:41:38.934Z,13.00
2023-04-14T18:44:09.959Z,13.60
2023-04-14T18:46:40.267Z,13.40
2023-04-14T18:49:09.213Z,13.60
2023-04-14T18:51:38.346Z,13.30
2023-04-14T18:54:07.538Z,13.10
2023-04-14T18:56:36.716Z,13.10
2023-04-14T18:59:07.013Z,13.30
2023-04-14T19:01:37.500Z,13.20
2023-04-14T19:04:05.829Z,13.00
2023-04-14T19:06:33.593Z,12.80
2023-04-14T19:09:02.025Z,12.90
2023-04-14T19:11:30.178Z,12.70
2023-04-14T19:13:58.247Z,12.60
2023-04-14T19:16:28.514Z,12.90
2023-04-14T19:18:58.441Z,12.60
2023-04-14T19:21:26.264Z,12.00
2023-04-14T19:23:54.511Z,12.40
2023-04-14T19:26:22.440Z,12.60
2023-04-14T19:28:50.168Z,12.50
2023-04-14T19:31:21.088Z,12.30
2023-04-14T19:33:49.344Z,12.10
2023-04-14T19:36:19.222Z,12.30
2023-04-14T19:38:47.137Z,12.30
2023-04-14T19:41:15.654Z,12.10
2023-04-14T19:43:43.603Z,12.00
2023-04-14T19:46:13.101Z,11.90
2023-04-14T19:48:40.923Z,11.50
2023-04-14T19:51:08.985Z,11.70
2023-04-14T19:53:38.536Z,11.70
2023-04-14T19:56:07.019Z,11.80
2023-04-14T19:58:34.716Z,11.10
2023-04-14T20:01:02.514Z,11.10
2023-04-14T20:03:33.058Z,11.40
2023-04-14T20:06:03.316Z,11.50
2023-04-14T20:08:32.196Z,11.50
2023-04-14T20:11:01.472Z,11.40
2023-04-14T20:13:32.046Z,11.50
2023-04-14T20:16:00.124Z,11.30
2023-04-14T20:18:28.772Z,11.40
2023-04-14T20:20:56.772Z,11.40
2023-04-14T20:23:24.687Z,11.40
2023-04-14T20:25:53.962Z,11.50
2023-04-14T20:28:26.276Z,11.50
2023-04-14T20:30:55.751Z,11.50
2023-04-14T20:33:24.751Z,11.50
2023-04-14T20:35:53.911Z,11.50
2023-04-14T20:38:22.331Z,11.50
2023-04-14T20:40:50.116Z,11.40
2023-04-14T20:43:17.865Z,11.40
2023-04-14T20:45:49.700Z,11.40
2023-04-14T20:48:18.360Z,11.40
2023-04-14T20:50:49.357Z,11.30
2023-04-14T20:53:17.776Z,11.50
2023-04-14T20:55:46.001Z,11.50
2023-04-14T20:58:13.927Z,11.30
2023-04-14T21:00:42.049Z,11.40
2023-04-14T21:03:11.602Z,11.00
2023-04-14T21:05:39.536Z,11.10
2023-04-14T21:08:08.421Z,11.20
2023-04-14T21:10:36.501Z,11.10
2023-04-14T21:15:40.932Z,11.10
2023-04-14T21:16:11.957Z,11.00
2023-04-14T21:18:41.127Z,10.80
2023-04-14T21:21:10.681Z,11.30
2023-04-14T21:23:38.537Z,11.00
2023-04-14T21:26:06.521Z,11.10
2023-04-14T21:28:35.491Z,11.30
2023-04-14T21:31:03.609Z,11.10
2023-04-14T21:33:32.188Z,11.10
2023-04-14T21:36:01.771Z,10.90
2023-04-14T21:38:29.565Z,10.90
2023-04-14T21:40:58.100Z,11.00
2023-04-14T21:43:25.897Z,10.80
2023-04-14T21:45:54.575Z,11.10
2023-04-14T21:48:23.465Z,10.50
2023-04-14T21:50:51.183Z,10.80
2023-04-14T21:53:20.625Z,10.60
2023-04-14T21:55:58.824Z,10.70
2023-04-14T21:58:36.488Z,10.50
2023-04-14T22:01:04.666Z,10.60
2023-04-14T22:03:33.199Z,10.40
2023-04-14T22:06:01.091Z,10.50
2023-04-14T22:08:30.495Z,10.50
2023-04-14T22:10:58.241Z,10.40
2023-04-14T22:13:26.237Z,10.30
2023-04-14T22:15:54.997Z,10.20
2023-04-14T22:18:22.810Z,10.30
2023-04-14T22:20:50.603Z,10.10
2023-04-14T22:23:18.442Z,10.20
2023-04-14T22:25:47.864Z,10.30
2023-04-14T22:28:15.823Z,10.00
2023-04-14T22:30:43.989Z,10.10
2023-04-14T22:33:12.000Z,10.10
2023-04-14T22:35:39.870Z,9.80
2023-04-14T22:38:07.616Z,10.00
2023-04-14T22:40:35.454Z,9.90
2023-04-14T22:43:08.582Z,9.90
2023-04-14T22:45:37.668Z,9.50
2023-04-14T22:48:06.208Z,9.50
2023-04-14T22:50:34.087Z,9.60
2023-04-14T22:53:01.940Z,9.60
2023-04-14T22:55:29.732Z,9.40
2023-04-14T22:57:57.749Z,9.20
2023-04-14T23:00:27.052Z,9.10
2023-04-14T23:02:55.685Z,9.00
2023-04-14T23:05:24.314Z,9.00
2023-04-14T23:07:52.664Z,9.00
2023-04-14T23:10:20.916Z,9.00
2023-04-14T23:12:48.658Z,9.10
2023-04-14T23:15:16.684Z,8.70
2023-04-14T23:17:45.738Z,8.80
2023-04-14T23:20:13.815Z,8.90
2023-04-14T23:22:41.616Z,8.60
2023-04-14T23:25:10.586Z,9.00
2023-04-14T23:27:38.265Z,9.00
2023-04-14T23:30:07.217Z,8.70
2023-04-14T23:32:35.000Z,8.80
2023-04-14T23:35:04.242Z,8.60
2023-04-14T23:37:31.998Z,8.80
2023-04-14T23:39:59.812Z,8.70
2023-04-14T23:42:27.992Z,8.60
2023-04-14T23:44:55.744Z,8.80
2023-04-14T23:47:23.591Z,8.60
2023-04-14T23:49:51.832Z,8.70
2023-04-14T23:52:21.201Z,9.10
2023-04-14T23:54:48.941Z,9.10
2023-04-14T23:57:16.832Z,9.00
2023-04-14T23:59:44.528Z,8.80
